sensor_id;sensor_type;location;lat;lon;timestamp;temperature;humidity
3466;DHT22;1747;48.884;9.160;2022-09-09T00:01:44;16.50;99.90
3466;DHT22;1747;48.884;9.160;2022-09-09T00:04:17;16.40;99.90
3466;DHT22;1747;48.884;9.160;2022-09-09T00:06:54;16.30;99.90
3466;DHT22;1747;48.884;9.160;2022-09-09T00:09:26;16.40;99.90
3466;DHT22;1747;48.884;9.160;2022-09-09T00:11:58;16.40;99.90
3466;DHT22;1747;48.884;9.160;2022-09-09T00:14:37;16.40;99.90
3466;DHT22;1747;48.884;9.160;2022-09-09T00:17:11;16.50;99.90
3466;DHT22;1747;48.884;9.160;2022-09-09T00:19:43;16.50;99.90
3466;DHT22;1747;48.884;9.160;2022-09-09T00:22:16;16.60;99.90
3466;DHT22;1747;48.884;9.160;2022-09-09T00:24:46;16.60;99.90
3466;DHT22;1747;48.884;9.160;2022-09-09T00:27:19;16.70;99.90
3466;DHT22;1747;48.884;9.160;2022-09-09T00:29:53;16.70;99.90
3466;DHT22;1747;48.884;9.160;2022-09-09T00:32:22;16.70;99.90
3466;DHT22;1747;48.884;9.160;2022-09-09T00:34:53;16.70;99.90
3466;DHT22;1747;48.884;9.160;2022-09-09T00:37:22;16.70;99.90
3466;DHT22;1747;48.884;9.160;2022-09-09T00:39:55;16.70;99.90
3466;DHT22;1747;48.884;9.160;2022-09-09T00:42:25;16.70;99.90
3466;DHT22;1747;48.884;9.160;2022-09-09T00:44:58;16.70;99.90
3466;DHT22;1747;48.884;9.160;2022-09-09T00:47:40;16.70;99.90
3466;DHT22;1747;48.884;9.160;2022-09-09T00:50:29;16.70;99.90
3466;DHT22;1747;48.884;9.160;2022-09-09T00:53:10;16.60;99.90
3466;DHT22;1747;48.884;9.160;2022-09-09T00:55:46;16.60;99.90
3466;DHT22;1747;48.884;9.160;2022-09-09T00:58:15;16.60;99.90
3466;DHT22;1747;48.884;9.160;2022-09-09T01:00:44;16.70;99.90
3466;DHT22;1747;48.884;9.160;2022-09-09T01:03:21;16.70;99.90
3466;DHT22;1747;48.884;9.160;2022-09-09T01:05:54;16.70;99.90
3466;DHT22;1747;48.884;9.160;2022-09-09T01:08:39;16.70;99.90
3466;DHT22;1747;48.884;9.160;2022-09-09T01:11:12;16.70;99.90
3466;DHT22;1747;48.884;9.160;2022-09-09T01:13:43;16.80;99.90
3466;DHT22;1747;48.884;9.160;2022-09-09T01:16:12;16.70;99.90
3466;DHT22;1747;48.884;9.160;2022-09-09T01:18:43;16.70;99.90
3466;DHT22;1747;48.884;9.160;2022-09-09T01:21:18;16.80;99.90
3466;DHT22;1747;48.884;9.160;2022-09-09T01:24:08;16.80;99.90
3466;DHT22;1747;48.884;9.160;2022-09-09T01:26:41;16.80;99.90
3466;DHT22;1747;48.884;9.160;2022-09-09T01:29:11;16.80;99.90
3466;DHT22;1747;48.884;9.160;2022-09-09T01:31:40;16.90;99.90
3466;DHT22;1747;48.884;9.160;2022-09-09T01:34:10;16.90;99.90
3466;DHT22;1747;48.884;9.160;2022-09-09T01:36:41;16.90;99.90
3466;DHT22;1747;48.884;9.160;2022-09-09T01:39:09;16.90;99.90
3466;DHT22;1747;48.884;9.160;2022-09-09T01:41:36;17.00;99.90
3466;DHT22;1747;48.884;9.160;2022-09-09T01:44:05;17.00;99.90
3466;DHT22;1747;48.884;9.160;2022-09-09T01:46:32;17.00;99.90
3466;DHT22;1747;48.884;9.160;2022-09-09T01:49:01;17.00;99.90
3466;DHT22;1747;48.884;9.160;2022-09-09T01:51:28;17.00;99.90
3466;DHT22;1747;48.884;9.160;2022-09-09T01:53:55;17.00;99.90
3466;DHT22;1747;48.884;9.160;2022-09-09T01:56:32;17.00;99.90
3466;DHT22;1747;48.884;9.160;2022-09-09T01:59:10;17.00;99.90
3466;DHT22;1747;48.884;9.160;2022-09-09T02:01:49;16.90;99.90
3466;DHT22;1747;48.884;9.160;2022-09-09T02:04:34;17.00;99.90
3466;DHT22;1747;48.884;9.160;2022-09-09T02:07:06;17.00;99.90
3466;DHT22;1747;48.884;9.160;2022-09-09T02:09:41;16.90;99.90
3466;DHT22;1747;48.884;9.160;2022-09-09T02:12:13;17.00;99.90
3466;DHT22;1747;48.884;9.160;2022-09-09T02:14:47;16.90;99.90
3466;DHT22;1747;48.884;9.160;2022-09-09T02:17:20;16.90;99.90
3466;DHT22;1747;48.884;9.160;2022-09-09T02:19:52;16.80;99.90
3466;DHT22;1747;48.884;9.160;2022-09-09T02:22:23;16.80;99.90
3466;DHT22;1747;48.884;9.160;2022-09-09T02:24:51;16.90;99.90
3466;DHT22;1747;48.884;9.160;2022-09-09T02:27:22;17.00;99.90
3466;DHT22;1747;48.884;9.160;2022-09-09T02:29:51;17.10;99.90
3466;DHT22;1747;48.884;9.160;2022-09-09T02:32:22;17.00;99.90
3466;DHT22;1747;48.884;9.160;2022-09-09T02:34:51;17.00;99.90
3466;DHT22;1747;48.884;9.160;2022-09-09T02:37:23;16.90;99.90
3466;DHT22;1747;48.884;9.160;2022-09-09T02:39:50;16.90;99.90
3466;DHT22;1747;48.884;9.160;2022-09-09T02:42:17;16.90;99.90
3466;DHT22;1747;48.884;9.160;2022-09-09T02:44:45;16.80;99.90
3466;DHT22;1747;48.884;9.160;2022-09-09T02:47:25;16.80;99.90
3466;DHT22;1747;48.884;9.160;2022-09-09T02:50:03;16.80;99.90
3466;DHT22;1747;48.884;9.160;2022-09-09T02:52:38;16.80;99.90
3466;DHT22;1747;48.884;9.160;2022-09-09T02:55:14;16.70;99.90
3466;DHT22;1747;48.884;9.160;2022-09-09T02:57:43;16.70;99.90
3466;DHT22;1747;48.884;9.160;2022-09-09T03:00:13;16.50;99.90
3466;DHT22;1747;48.884;9.160;2022-09-09T03:02:42;16.50;99.90
3466;DHT22;1747;48.884;9.160;2022-09-09T03:05:10;16.40;99.90
3466;DHT22;1747;48.884;9.160;2022-09-09T03:07:38;16.40;99.90
3466;DHT22;1747;48.884;9.160;2022-09-09T03:10:06;16.20;99.90
3466;DHT22;1747;48.884;9.160;2022-09-09T03:12:33;16.20;99.90
3466;DHT22;1747;48.884;9.160;2022-09-09T03:15:00;16.20;99.90
3466;DHT22;1747;48.884;9.160;2022-09-09T03:17:27;16.00;99.90
3466;DHT22;1747;48.884;9.160;2022-09-09T03:19:55;15.90;99.90
3466;DHT22;1747;48.884;9.160;2022-09-09T03:22:24;15.90;99.90
3466;DHT22;1747;48.884;9.160;2022-09-09T03:24:50;15.80;99.90
3466;DHT22;1747;48.884;9.160;2022-09-09T03:27:17;15.80;99.90
3466;DHT22;1747;48.884;9.160;2022-09-09T03:29:45;15.80;99.90
3466;DHT22;1747;48.884;9.160;2022-09-09T03:32:12;15.80;99.90
3466;DHT22;1747;48.884;9.160;2022-09-09T03:34:39;15.60;99.90
3466;DHT22;1747;48.884;9.160;2022-09-09T03:37:07;15.50;99.90
3466;DHT22;1747;48.884;9.160;2022-09-09T03:39:34;15.40;99.90
3466;DHT22;1747;48.884;9.160;2022-09-09T03:42:01;15.50;99.90
3466;DHT22;1747;48.884;9.160;2022-09-09T03:44:29;15.50;99.90
3466;DHT22;1747;48.884;9.160;2022-09-09T03:46:56;15.60;99.90
3466;DHT22;1747;48.884;9.160;2022-09-09T03:49:26;15.60;99.90
3466;DHT22;1747;48.884;9.160;2022-09-09T03:51:54;15.60;99.90
3466;DHT22;1747;48.884;9.160;2022-09-09T03:54:23;15.50;99.90
3466;DHT22;1747;48.884;9.160;2022-09-09T03:56:50;15.60;99.90
3466;DHT22;1747;48.884;9.160;2022-09-09T03:59:16;15.60;99.90
3466;DHT22;1747;48.884;9.160;2022-09-09T04:01:43;15.60;99.90
3466;DHT22;1747;48.884;9.160;2022-09-09T04:04:11;15.60;99.90
3466;DHT22;1747;48.884;9.160;2022-09-09T04:06:37;15.60;99.90
3466;DHT22;1747;48.884;9.160;2022-09-09T04:09:04;15.60;99.90
3466;DHT22;1747;48.884;9.160;2022-09-09T04:11:32;15.60;99.90
3466;DHT22;1747;48.884;9.160;2022-09-09T04:13:59;15.70;99.90
3466;DHT22;1747;48.884;9.160;2022-09-09T04:16:26;15.70;99.90
3466;DHT22;1747;48.884;9.160;2022-09-09T04:18:53;15.70;99.90
3466;DHT22;1747;48.884;9.160;2022-09-09T04:21:21;15.70;99.90
3466;DHT22;1747;48.884;9.160;2022-09-09T04:23:48;15.70;99.90
3466;DHT22;1747;48.884;9.160;2022-09-09T04:26:15;15.80;99.90
3466;DHT22;1747;48.884;9.160;2022-09-09T04:28:44;15.80;99.90
3466;DHT22;1747;48.884;9.160;2022-09-09T04:31:15;15.80;99.90
3466;DHT22;1747;48.884;9.160;2022-09-09T04:33:42;15.90;99.90
3466;DHT22;1747;48.884;9.160;2022-09-09T04:36:09;15.90;99.90
3466;DHT22;1747;48.884;9.160;2022-09-09T04:38:36;16.00;99.90
3466;DHT22;1747;48.884;9.160;2022-09-09T04:41:03;16.00;99.90
3466;DHT22;1747;48.884;9.160;2022-09-09T04:43:30;16.00;99.90
3466;DHT22;1747;48.884;9.160;2022-09-09T04:45:58;16.00;99.90
3466;DHT22;1747;48.884;9.160;2022-09-09T04:48:25;16.10;99.90
3466;DHT22;1747;48.884;9.160;2022-09-09T04:50:56;16.00;99.90
3466;DHT22;1747;48.884;9.160;2022-09-09T04:53:23;16.00;99.90
3466;DHT22;1747;48.884;9.160;2022-09-09T04:55:50;16.10;99.90
3466;DHT22;1747;48.884;9.160;2022-09-09T04:58:17;16.10;99.90
3466;DHT22;1747;48.884;9.160;2022-09-09T05:00:47;16.10;99.90
3466;DHT22;1747;48.884;9.160;2022-09-09T05:03:15;16.20;99.90
3466;DHT22;1747;48.884;9.160;2022-09-09T05:05:42;16.20;99.90
3466;DHT22;1747;48.884;9.160;2022-09-09T05:08:10;16.20;99.90
3466;DHT22;1747;48.884;9.160;2022-09-09T05:10:38;16.30;99.90
3466;DHT22;1747;48.884;9.160;2022-09-09T05:13:07;16.40;99.90
3466;DHT22;1747;48.884;9.160;2022-09-09T05:15:34;16.50;99.90
3466;DHT22;1747;48.884;9.160;2022-09-09T05:18:02;16.50;99.90
3466;DHT22;1747;48.884;9.160;2022-09-09T05:20:30;16.50;99.90
3466;DHT22;1747;48.884;9.160;2022-09-09T05:22:57;16.40;99.90
3466;DHT22;1747;48.884;9.160;2022-09-09T05:25:24;16.40;99.90
3466;DHT22;1747;48.884;9.160;2022-09-09T05:27:52;16.40;99.90
3466;DHT22;1747;48.884;9.160;2022-09-09T05:30:20;16.40;99.90
3466;DHT22;1747;48.884;9.160;2022-09-09T05:32:47;16.40;99.90
3466;DHT22;1747;48.884;9.160;2022-09-09T05:35:14;16.40;99.90
3466;DHT22;1747;48.884;9.160;2022-09-09T05:37:43;16.50;99.90
3466;DHT22;1747;48.884;9.160;2022-09-09T05:40:11;16.60;99.90
3466;DHT22;1747;48.884;9.160;2022-09-09T05:42:38;16.60;99.90
3466;DHT22;1747;48.884;9.160;2022-09-09T05:45:06;16.70;99.90
3466;DHT22;1747;48.884;9.160;2022-09-09T05:47:34;16.80;99.90
3466;DHT22;1747;48.884;9.160;2022-09-09T05:50:00;16.90;99.90
3466;DHT22;1747;48.884;9.160;2022-09-09T05:52:27;17.00;99.90
3466;DHT22;1747;48.884;9.160;2022-09-09T05:54:55;17.00;99.90
3466;DHT22;1747;48.884;9.160;2022-09-09T05:57:22;17.00;99.90
3466;DHT22;1747;48.884;9.160;2022-09-09T05:59:49;17.10;99.90
3466;DHT22;1747;48.884;9.160;2022-09-09T06:02:16;17.20;99.90
3466;DHT22;1747;48.884;9.160;2022-09-09T06:04:43;17.40;99.90
3466;DHT22;1747;48.884;9.160;2022-09-09T06:07:09;17.50;99.90
3466;DHT22;1747;48.884;9.160;2022-09-09T06:09:36;17.60;99.90
3466;DHT22;1747;48.884;9.160;2022-09-09T06:12:05;17.70;99.90
3466;DHT22;1747;48.884;9.160;2022-09-09T06:14:32;17.90;99.90
3466;DHT22;1747;48.884;9.160;2022-09-09T06:16:59;17.90;99.90
3466;DHT22;1747;48.884;9.160;2022-09-09T06:19:27;18.00;99.90
3466;DHT22;1747;48.884;9.160;2022-09-09T06:21:54;18.00;99.90
3466;DHT22;1747;48.884;9.160;2022-09-09T06:24:21;18.00;99.90
3466;DHT22;1747;48.884;9.160;2022-09-09T06:26:48;18.10;99.90
3466;DHT22;1747;48.884;9.160;2022-09-09T06:29:16;18.20;99.90
3466;DHT22;1747;48.884;9.160;2022-09-09T06:31:42;18.20;99.90
3466;DHT22;1747;48.884;9.160;2022-09-09T06:34:10;18.20;99.90
3466;DHT22;1747;48.884;9.160;2022-09-09T06:36:37;18.20;99.90
3466;DHT22;1747;48.884;9.160;2022-09-09T06:39:05;18.30;99.90
3466;DHT22;1747;48.884;9.160;2022-09-09T06:41:33;18.30;99.90
3466;DHT22;1747;48.884;9.160;2022-09-09T06:44:00;18.40;99.90
3466;DHT22;1747;48.884;9.160;2022-09-09T06:46:30;18.40;99.90
3466;DHT22;1747;48.884;9.160;2022-09-09T06:48:59;18.50;99.90
3466;DHT22;1747;48.884;9.160;2022-09-09T06:51:27;18.40;99.90
3466;DHT22;1747;48.884;9.160;2022-09-09T06:53:55;18.50;99.90
3466;DHT22;1747;48.884;9.160;2022-09-09T06:56:24;18.50;99.90
3466;DHT22;1747;48.884;9.160;2022-09-09T06:58:54;18.50;99.90
3466;DHT22;1747;48.884;9.160;2022-09-09T07:01:23;18.60;99.90
3466;DHT22;1747;48.884;9.160;2022-09-09T07:03:52;18.70;99.90
3466;DHT22;1747;48.884;9.160;2022-09-09T07:06:21;18.80;99.90
3466;DHT22;1747;48.884;9.160;2022-09-09T07:08:49;18.90;99.90
3466;DHT22;1747;48.884;9.160;2022-09-09T07:11:17;19.00;99.90
3466;DHT22;1747;48.884;9.160;2022-09-09T07:13:44;19.00;99.90
3466;DHT22;1747;48.884;9.160;2022-09-09T07:16:15;19.00;99.90
3466;DHT22;1747;48.884;9.160;2022-09-09T07:18:42;19.00;99.90
3466;DHT22;1747;48.884;9.160;2022-09-09T07:21:12;19.10;99.90
3466;DHT22;1747;48.884;9.160;2022-09-09T07:23:40;19.10;99.90
3466;DHT22;1747;48.884;9.160;2022-09-09T07:26:09;19.30;99.90
3466;DHT22;1747;48.884;9.160;2022-09-09T07:28:36;19.30;99.90
3466;DHT22;1747;48.884;9.160;2022-09-09T07:31:05;19.40;99.90
3466;DHT22;1747;48.884;9.160;2022-09-09T07:33:34;19.40;99.90
3466;DHT22;1747;48.884;9.160;2022-09-09T07:36:03;19.40;99.90
3466;DHT22;1747;48.884;9.160;2022-09-09T07:38:32;19.50;99.90
3466;DHT22;1747;48.884;9.160;2022-09-09T07:41:05;19.50;99.90
3466;DHT22;1747;48.884;9.160;2022-09-09T07:43:34;19.60;99.90
3466;DHT22;1747;48.884;9.160;2022-09-09T07:46:01;19.60;99.90
3466;DHT22;1747;48.884;9.160;2022-09-09T07:48:28;19.70;99.90
3466;DHT22;1747;48.884;9.160;2022-09-09T07:51:04;19.80;99.90
3466;DHT22;1747;48.884;9.160;2022-09-09T07:53:36;19.80;99.90
3466;DHT22;1747;48.884;9.160;2022-09-09T07:56:06;19.80;99.90
3466;DHT22;1747;48.884;9.160;2022-09-09T07:58:36;19.80;99.90
3466;DHT22;1747;48.884;9.160;2022-09-09T08:01:09;19.80;99.90
3466;DHT22;1747;48.884;9.160;2022-09-09T08:03:38;19.90;99.90
3466;DHT22;1747;48.884;9.160;2022-09-09T08:06:07;20.00;99.90
3466;DHT22;1747;48.884;9.160;2022-09-09T08:08:40;20.20;99.90
3466;DHT22;1747;48.884;9.160;2022-09-09T08:11:10;20.30;99.90
3466;DHT22;1747;48.884;9.160;2022-09-09T08:13:38;20.40;99.90
3466;DHT22;1747;48.884;9.160;2022-09-09T08:16:07;20.50;99.90
3466;DHT22;1747;48.884;9.160;2022-09-09T08:18:34;20.50;99.90
3466;DHT22;1747;48.884;9.160;2022-09-09T08:21:09;20.60;99.90
3466;DHT22;1747;48.884;9.160;2022-09-09T08:23:40;20.70;99.90
3466;DHT22;1747;48.884;9.160;2022-09-09T08:26:12;20.70;99.90
3466;DHT22;1747;48.884;9.160;2022-09-09T08:28:40;20.80;99.90
3466;DHT22;1747;48.884;9.160;2022-09-09T08:31:10;21.00;99.90
3466;DHT22;1747;48.884;9.160;2022-09-09T08:33:37;21.10;99.90
3466;DHT22;1747;48.884;9.160;2022-09-09T08:36:05;21.20;99.90
3466;DHT22;1747;48.884;9.160;2022-09-09T08:38:33;21.30;99.90
3466;DHT22;1747;48.884;9.160;2022-09-09T08:41:10;21.30;99.90
3466;DHT22;1747;48.884;9.160;2022-09-09T08:43:37;21.30;99.90
3466;DHT22;1747;48.884;9.160;2022-09-09T08:46:11;21.30;99.90
3466;DHT22;1747;48.884;9.160;2022-09-09T08:48:52;21.40;99.90
3466;DHT22;1747;48.884;9.160;2022-09-09T08:51:26;21.50;99.90
3466;DHT22;1747;48.884;9.160;2022-09-09T08:53:55;21.60;99.90
3466;DHT22;1747;48.884;9.160;2022-09-09T08:56:27;21.70;99.90
3466;DHT22;1747;48.884;9.160;2022-09-09T08:59:00;21.90;99.90
3466;DHT22;1747;48.884;9.160;2022-09-09T09:01:45;22.00;99.90
3466;DHT22;1747;48.884;9.160;2022-09-09T09:04:37;22.20;99.90
3466;DHT22;1747;48.884;9.160;2022-09-09T09:07:13;22.20;99.90
3466;DHT22;1747;48.884;9.160;2022-09-09T09:09:53;22.20;99.90
3466;DHT22;1747;48.884;9.160;2022-09-09T09:12:28;22.30;99.40
3466;DHT22;1747;48.884;9.160;2022-09-09T09:14:56;22.40;99.10
3466;DHT22;1747;48.884;9.160;2022-09-09T09:17:26;22.60;98.70
3466;DHT22;1747;48.884;9.160;2022-09-09T09:19:57;22.40;98.30
3466;DHT22;1747;48.884;9.160;2022-09-09T09:22:32;22.40;98.90
3466;DHT22;1747;48.884;9.160;2022-09-09T09:25:09;22.40;98.20
3466;DHT22;1747;48.884;9.160;2022-09-09T09:27:42;22.10;98.20
3466;DHT22;1747;48.884;9.160;2022-09-09T09:30:15;22.00;98.30
3466;DHT22;1747;48.884;9.160;2022-09-09T09:32:49;22.00;98.50
3466;DHT22;1747;48.884;9.160;2022-09-09T09:35:17;22.10;99.00
3466;DHT22;1747;48.884;9.160;2022-09-09T09:37:44;22.20;98.60
3466;DHT22;1747;48.884;9.160;2022-09-09T09:40:14;22.10;98.60
3466;DHT22;1747;48.884;9.160;2022-09-09T09:42:53;22.10;98.70
3466;DHT22;1747;48.884;9.160;2022-09-09T09:45:28;22.10;98.70
3466;DHT22;1747;48.884;9.160;2022-09-09T09:48:01;22.20;98.40
3466;DHT22;1747;48.884;9.160;2022-09-09T09:50:29;22.40;98.60
3466;DHT22;1747;48.884;9.160;2022-09-09T09:52:59;22.50;99.00
3466;DHT22;1747;48.884;9.160;2022-09-09T09:55:28;22.70;98.80
3466;DHT22;1747;48.884;9.160;2022-09-09T09:58:03;22.90;98.80
3466;DHT22;1747;48.884;9.160;2022-09-09T10:00:31;22.90;97.70
3466;DHT22;1747;48.884;9.160;2022-09-09T10:03:00;23.00;98.10
3466;DHT22;1747;48.884;9.160;2022-09-09T10:05:28;23.00;97.90
3466;DHT22;1747;48.884;9.160;2022-09-09T10:08:11;23.00;98.30
3466;DHT22;1747;48.884;9.160;2022-09-09T10:13:50;23.00;97.20
3466;DHT22;1747;48.884;9.160;2022-09-09T10:16:34;23.10;97.00
3466;DHT22;1747;48.884;9.160;2022-09-09T10:19:05;23.10;96.60
3466;DHT22;1747;48.884;9.160;2022-09-09T10:21:57;23.20;96.70
3466;DHT22;1747;48.884;9.160;2022-09-09T10:24:41;23.30;95.80
3466;DHT22;1747;48.884;9.160;2022-09-09T10:27:19;23.30;95.40
3466;DHT22;1747;48.884;9.160;2022-09-09T10:30:04;23.30;95.70
3466;DHT22;1747;48.884;9.160;2022-09-09T10:32:43;23.40;95.50
3466;DHT22;1747;48.884;9.160;2022-09-09T10:35:17;23.60;94.90
3466;DHT22;1747;48.884;9.160;2022-09-09T10:38:03;23.60;95.30
3466;DHT22;1747;48.884;9.160;2022-09-09T10:40:33;23.90;95.00
3466;DHT22;1747;48.884;9.160;2022-09-09T10:43:10;23.90;94.50
3466;DHT22;1747;48.884;9.160;2022-09-09T10:45:48;24.00;94.20
3466;DHT22;1747;48.884;9.160;2022-09-09T10:48:31;24.10;93.80
3466;DHT22;1747;48.884;9.160;2022-09-09T10:51:06;24.20;94.10
3466;DHT22;1747;48.884;9.160;2022-09-09T10:53:44;24.30;94.10
3466;DHT22;1747;48.884;9.160;2022-09-09T10:56:16;24.20;94.00
3466;DHT22;1747;48.884;9.160;2022-09-09T10:58:52;24.20;93.90
3466;DHT22;1747;48.884;9.160;2022-09-09T11:01:25;24.20;93.90
3466;DHT22;1747;48.884;9.160;2022-09-09T11:03:56;23.90;93.90
3466;DHT22;1747;48.884;9.160;2022-09-09T11:06:31;23.80;94.40
3466;DHT22;1747;48.884;9.160;2022-09-09T11:09:03;23.80;94.80
3466;DHT22;1747;48.884;9.160;2022-09-09T11:11:39;23.80;95.00
3466;DHT22;1747;48.884;9.160;2022-09-09T11:14:13;23.60;95.20
3466;DHT22;1747;48.884;9.160;2022-09-09T11:16:47;23.50;97.20
3466;DHT22;1747;48.884;9.160;2022-09-09T11:19:24;23.30;97.50
3466;DHT22;1747;48.884;9.160;2022-09-09T11:21:55;23.00;98.10
3466;DHT22;1747;48.884;9.160;2022-09-09T11:24:27;22.60;99.90
3466;DHT22;1747;48.884;9.160;2022-09-09T11:27:00;22.00;99.90
3466;DHT22;1747;48.884;9.160;2022-09-09T11:29:53;21.60;99.90
3466;DHT22;1747;48.884;9.160;2022-09-09T11:32:53;21.20;99.90
3466;DHT22;1747;48.884;9.160;2022-09-09T11:35:33;21.00;99.90
3466;DHT22;1747;48.884;9.160;2022-09-09T11:38:21;20.80;99.90
3466;DHT22;1747;48.884;9.160;2022-09-09T11:40:57;20.70;99.90
3466;DHT22;1747;48.884;9.160;2022-09-09T11:43:30;20.50;99.90
3466;DHT22;1747;48.884;9.160;2022-09-09T11:46:01;20.50;99.90
3466;DHT22;1747;48.884;9.160;2022-09-09T11:48:33;20.50;99.90
3466;DHT22;1747;48.884;9.160;2022-09-09T11:51:03;20.60;99.90
3466;DHT22;1747;48.884;9.160;2022-09-09T11:53:31;20.60;99.90
3466;DHT22;1747;48.884;9.160;2022-09-09T11:56:11;20.60;99.90
3466;DHT22;1747;48.884;9.160;2022-09-09T11:58:41;20.60;99.90
3466;DHT22;1747;48.884;9.160;2022-09-09T12:01:25;20.70;99.90
3466;DHT22;1747;48.884;9.160;2022-09-09T12:06:43;21.10;99.90
3466;DHT22;1747;48.884;9.160;2022-09-09T12:09:19;21.30;99.90
3466;DHT22;1747;48.884;9.160;2022-09-09T12:11:47;21.60;99.90
3466;DHT22;1747;48.884;9.160;2022-09-09T12:14:21;21.80;99.90
3466;DHT22;1747;48.884;9.160;2022-09-09T12:16:48;22.00;99.90
3466;DHT22;1747;48.884;9.160;2022-09-09T12:19:19;22.30;99.90
3466;DHT22;1747;48.884;9.160;2022-09-09T12:21:53;22.60;99.90
3466;DHT22;1747;48.884;9.160;2022-09-09T12:24:27;23.20;97.70
3466;DHT22;1747;48.884;9.160;2022-09-09T12:27:02;23.90;96.10
3466;DHT22;1747;48.884;9.160;2022-09-09T12:29:39;24.70;94.10
3466;DHT22;1747;48.884;9.160;2022-09-09T12:32:10;25.30;94.70
3466;DHT22;1747;48.884;9.160;2022-09-09T12:34:41;25.40;93.40
3466;DHT22;1747;48.884;9.160;2022-09-09T12:37:15;25.50;93.00
3466;DHT22;1747;48.884;9.160;2022-09-09T12:39:45;25.90;93.80
3466;DHT22;1747;48.884;9.160;2022-09-09T12:42:18;26.30;92.10
3466;DHT22;1747;48.884;9.160;2022-09-09T12:44:53;26.60;91.50
3466;DHT22;1747;48.884;9.160;2022-09-09T12:47:23;27.20;91.50
3466;DHT22;1747;48.884;9.160;2022-09-09T12:49:53;27.40;90.30
3466;DHT22;1747;48.884;9.160;2022-09-09T12:52:26;27.50;88.00
3466;DHT22;1747;48.884;9.160;2022-09-09T12:54:55;27.40;87.90
3466;DHT22;1747;48.884;9.160;2022-09-09T12:57:24;27.50;87.30
3466;DHT22;1747;48.884;9.160;2022-09-09T12:59:52;27.40;86.10
3466;DHT22;1747;48.884;9.160;2022-09-09T13:02:31;27.10;86.70
3466;DHT22;1747;48.884;9.160;2022-09-09T13:05:15;27.10;87.50
3466;DHT22;1747;48.884;9.160;2022-09-09T13:07:42;27.40;86.90
3466;DHT22;1747;48.884;9.160;2022-09-09T13:10:11;27.30;85.20
3466;DHT22;1747;48.884;9.160;2022-09-09T13:12:38;27.60;83.00
3466;DHT22;1747;48.884;9.160;2022-09-09T13:15:13;28.10;83.90
3466;DHT22;1747;48.884;9.160;2022-09-09T13:17:41;28.20;81.60
3466;DHT22;1747;48.884;9.160;2022-09-09T13:20:16;27.70;81.50
3466;DHT22;1747;48.884;9.160;2022-09-09T13:22:43;27.50;83.20
3466;DHT22;1747;48.884;9.160;2022-09-09T13:25:19;28.00;83.20
3466;DHT22;1747;48.884;9.160;2022-09-09T13:27:53;28.50;82.10
3466;DHT22;1747;48.884;9.160;2022-09-09T13:30:22;29.00;79.20
3466;DHT22;1747;48.884;9.160;2022-09-09T13:33:04;28.90;77.30
3466;DHT22;1747;48.884;9.160;2022-09-09T13:35:33;28.80;77.00
3466;DHT22;1747;48.884;9.160;2022-09-09T13:38:07;28.60;77.30
3466;DHT22;1747;48.884;9.160;2022-09-09T13:40:35;28.90;75.90
3466;DHT22;1747;48.884;9.160;2022-09-09T13:43:02;28.90;75.60
3466;DHT22;1747;48.884;9.160;2022-09-09T13:45:31;29.00;75.20
3466;DHT22;1747;48.884;9.160;2022-09-09T13:48:09;29.00;75.40
3466;DHT22;1747;48.884;9.160;2022-09-09T13:50:38;28.80;72.70
3466;DHT22;1747;48.884;9.160;2022-09-09T13:53:07;28.50;74.00
3466;DHT22;1747;48.884;9.160;2022-09-09T13:55:36;28.50;73.50
3466;DHT22;1747;48.884;9.160;2022-09-09T13:58:04;28.70;72.90
3466;DHT22;1747;48.884;9.160;2022-09-09T14:00:33;29.20;72.30
3466;DHT22;1747;48.884;9.160;2022-09-09T14:03:00;29.30;69.60
3466;DHT22;1747;48.884;9.160;2022-09-09T14:05:29;29.00;69.10
3466;DHT22;1747;48.884;9.160;2022-09-09T14:07:58;28.90;69.80
3466;DHT22;1747;48.884;9.160;2022-09-09T14:10:26;29.00;70.90
3466;DHT22;1747;48.884;9.160;2022-09-09T14:12:52;28.50;69.20
3466;DHT22;1747;48.884;9.160;2022-09-09T14:15:19;27.80;70.30
3466;DHT22;1747;48.884;9.160;2022-09-09T14:17:47;27.30;71.40
3466;DHT22;1747;48.884;9.160;2022-09-09T14:20:14;26.90;72.30
3466;DHT22;1747;48.884;9.160;2022-09-09T14:22:43;26.80;73.80
3466;DHT22;1747;48.884;9.160;2022-09-09T14:25:12;27.20;73.30
3466;DHT22;1747;48.884;9.160;2022-09-09T14:27:39;27.90;70.60
3466;DHT22;1747;48.884;9.160;2022-09-09T14:30:08;28.50;70.90
3466;DHT22;1747;48.884;9.160;2022-09-09T14:32:35;29.20;68.80
3466;DHT22;1747;48.884;9.160;2022-09-09T14:35:04;29.50;67.50
3466;DHT22;1747;48.884;9.160;2022-09-09T14:37:31;29.40;67.40
3466;DHT22;1747;48.884;9.160;2022-09-09T14:39:58;29.10;67.50
3466;DHT22;1747;48.884;9.160;2022-09-09T14:42:26;28.70;67.00
3466;DHT22;1747;48.884;9.160;2022-09-09T14:44:55;28.10;68.90
3466;DHT22;1747;48.884;9.160;2022-09-09T14:47:22;27.40;69.10
3466;DHT22;1747;48.884;9.160;2022-09-09T14:49:49;26.90;70.60
3466;DHT22;1747;48.884;9.160;2022-09-09T14:52:16;26.50;70.10
3466;DHT22;1747;48.884;9.160;2022-09-09T14:54:44;26.30;70.60
3466;DHT22;1747;48.884;9.160;2022-09-09T14:57:12;26.00;71.50
3466;DHT22;1747;48.884;9.160;2022-09-09T14:59:40;25.80;72.70
3466;DHT22;1747;48.884;9.160;2022-09-09T15:02:08;25.80;73.20
3466;DHT22;1747;48.884;9.160;2022-09-09T15:04:35;25.80;70.90
3466;DHT22;1747;48.884;9.160;2022-09-09T15:07:02;25.70;71.40
3466;DHT22;1747;48.884;9.160;2022-09-09T15:09:29;25.50;71.80
3466;DHT22;1747;48.884;9.160;2022-09-09T15:11:56;25.30;72.30
3466;DHT22;1747;48.884;9.160;2022-09-09T15:14:28;25.20;72.30
3466;DHT22;1747;48.884;9.160;2022-09-09T15:16:57;25.30;72.30
3466;DHT22;1747;48.884;9.160;2022-09-09T15:19:24;25.30;73.80
3466;DHT22;1747;48.884;9.160;2022-09-09T15:21:51;25.20;74.30
3466;DHT22;1747;48.884;9.160;2022-09-09T15:24:18;25.20;74.40
3466;DHT22;1747;48.884;9.160;2022-09-09T15:26:45;25.10;70.90
3466;DHT22;1747;48.884;9.160;2022-09-09T15:29:12;24.90;71.60
3466;DHT22;1747;48.884;9.160;2022-09-09T15:31:39;24.70;71.70
3466;DHT22;1747;48.884;9.160;2022-09-09T15:34:07;24.60;71.70
3466;DHT22;1747;48.884;9.160;2022-09-09T15:36:35;25.00;71.60
3466;DHT22;1747;48.884;9.160;2022-09-09T15:39:04;25.70;71.20
3466;DHT22;1747;48.884;9.160;2022-09-09T15:41:31;26.30;69.80
3466;DHT22;1747;48.884;9.160;2022-09-09T15:43:59;26.40;69.40
3466;DHT22;1747;48.884;9.160;2022-09-09T15:46:31;26.20;69.40
3466;DHT22;1747;48.884;9.160;2022-09-09T15:49:03;26.20;69.60
3466;DHT22;1747;48.884;9.160;2022-09-09T15:51:32;25.80;70.00
3466;DHT22;1747;48.884;9.160;2022-09-09T15:53:59;25.40;71.40
3466;DHT22;1747;48.884;9.160;2022-09-09T15:56:28;25.20;71.70
3466;DHT22;1747;48.884;9.160;2022-09-09T15:58:56;24.80;72.60
3466;DHT22;1747;48.884;9.160;2022-09-09T16:01:23;24.70;72.80
3466;DHT22;1747;48.884;9.160;2022-09-09T16:03:50;24.50;73.10
3466;DHT22;1747;48.884;9.160;2022-09-09T16:06:19;24.40;74.00
3466;DHT22;1747;48.884;9.160;2022-09-09T16:08:50;24.20;75.30
3466;DHT22;1747;48.884;9.160;2022-09-09T16:11:19;24.10;75.30
3466;DHT22;1747;48.884;9.160;2022-09-09T16:13:48;24.00;75.90
3466;DHT22;1747;48.884;9.160;2022-09-09T16:16:16;23.90;76.30
3466;DHT22;1747;48.884;9.160;2022-09-09T16:18:46;23.80;76.70
3466;DHT22;1747;48.884;9.160;2022-09-09T16:21:15;23.70;76.60
3466;DHT22;1747;48.884;9.160;2022-09-09T16:23:42;23.70;77.20
3466;DHT22;1747;48.884;9.160;2022-09-09T16:26:13;23.40;77.10
3466;DHT22;1747;48.884;9.160;2022-09-09T16:28:40;23.00;76.20
3466;DHT22;1747;48.884;9.160;2022-09-09T16:31:08;22.70;76.50